sensor_id;sensor_type;location;lat;lon;timestamp;temperature;humidity
39677;DHT22;27789;50.840;4.386;2023-09-19T00:00:36;16.60;99.90
39677;DHT22;27789;50.840;4.386;2023-09-19T00:03:02;16.60;99.90
39677;DHT22;27789;50.840;4.386;2023-09-19T00:05:29;16.60;99.90
39677;DHT22;27789;50.840;4.386;2023-09-19T00:08:00;16.60;99.90
39677;DHT22;27789;50.840;4.386;2023-09-19T00:10:26;16.50;99.90
39677;DHT22;27789;50.840;4.386;2023-09-19T00:12:52;16.50;99.90
39677;DHT22;27789;50.840;4.386;2023-09-19T00:15:24;16.50;99.90
39677;DHT22;27789;50.840;4.386;2023-09-19T00:17:51;16.40;99.90
39677;DHT22;27789;50.840;4.386;2023-09-19T00:20:18;16.50;99.90
39677;DHT22;27789;50.840;4.386;2023-09-19T00:22:43;16.50;99.90
39677;DHT22;27789;50.840;4.386;2023-09-19T00:25:09;16.50;99.90
39677;DHT22;27789;50.840;4.386;2023-09-19T00:27:35;16.40;99.90
39677;DHT22;27789;50.840;4.386;2023-09-19T00:30:01;16.40;99.90
39677;DHT22;27789;50.840;4.386;2023-09-19T00:32:26;16.40;99.90
39677;DHT22;27789;50.840;4.386;2023-09-19T00:34:57;16.40;99.90
39677;DHT22;27789;50.840;4.386;2023-09-19T00:37:23;16.40;99.90
39677;DHT22;27789;50.840;4.386;2023-09-19T00:39:48;16.40;99.90
39677;DHT22;27789;50.840;4.386;2023-09-19T00:42:20;16.40;99.90
39677;DHT22;27789;50.840;4.386;2023-09-19T00:44:46;16.40;99.90
39677;DHT22;27789;50.840;4.386;2023-09-19T00:47:12;16.40;99.90
39677;DHT22;27789;50.840;4.386;2023-09-19T00:49:42;16.40;99.90
39677;DHT22;27789;50.840;4.386;2023-09-19T00:52:07;16.40;99.90
39677;DHT22;27789;50.840;4.386;2023-09-19T00:54:35;16.30;99.90
39677;DHT22;27789;50.840;4.386;2023-09-19T00:57:01;16.30;99.90
39677;DHT22;27789;50.840;4.386;2023-09-19T00:59:27;16.40;99.90
39677;DHT22;27789;50.840;4.386;2023-09-19T01:01:53;16.30;99.90
39677;DHT22;27789;50.840;4.386;2023-09-19T01:04:19;16.30;99.90
39677;DHT22;27789;50.840;4.386;2023-09-19T01:06:45;16.40;99.90
39677;DHT22;27789;50.840;4.386;2023-09-19T01:09:11;16.40;99.90
39677;DHT22;27789;50.840;4.386;2023-09-19T01:11:43;16.40;99.90
39677;DHT22;27789;50.840;4.386;2023-09-19T01:14:14;16.40;99.90
39677;DHT22;27789;50.840;4.386;2023-09-19T01:16:45;16.40;99.90
39677;DHT22;27789;50.840;4.386;2023-09-19T01:21:53;16.30;99.90
39677;DHT22;27789;50.840;4.386;2023-09-19T01:29:38;16.20;99.90
39677;DHT22;27789;50.840;4.386;2023-09-19T01:32:05;16.20;99.90
39677;DHT22;27789;50.840;4.386;2023-09-19T01:37:16;16.20;99.90
39677;DHT22;27789;50.840;4.386;2023-09-19T01:39:52;16.20;99.90
39677;DHT22;27789;50.840;4.386;2023-09-19T01:47:28;16.20;99.90
39677;DHT22;27789;50.840;4.386;2023-09-19T01:49:59;16.20;99.90
39677;DHT22;27789;50.840;4.386;2023-09-19T01:52:29;16.20;99.90
39677;DHT22;27789;50.840;4.386;2023-09-19T01:55:01;16.20;99.90
39677;DHT22;27789;50.840;4.386;2023-09-19T02:00:18;16.10;99.90
39677;DHT22;27789;50.840;4.386;2023-09-19T02:02:44;16.00;99.90
39677;DHT22;27789;50.840;4.386;2023-09-19T02:05:10;16.00;99.90
39677;DHT22;27789;50.840;4.386;2023-09-19T02:07:35;16.00;99.90
39677;DHT22;27789;50.840;4.386;2023-09-19T02:10:03;16.00;99.90
39677;DHT22;27789;50.840;4.386;2023-09-19T02:12:31;16.00;99.90
39677;DHT22;27789;50.840;4.386;2023-09-19T02:14:58;16.00;99.90
39677;DHT22;27789;50.840;4.386;2023-09-19T02:17:24;16.00;99.90
39677;DHT22;27789;50.840;4.386;2023-09-19T02:19:54;16.00;99.90
39677;DHT22;27789;50.840;4.386;2023-09-19T02:22:21;16.00;99.90
39677;DHT22;27789;50.840;4.386;2023-09-19T02:24:46;16.00;99.90
39677;DHT22;27789;50.840;4.386;2023-09-19T02:27:13;15.90;99.90
39677;DHT22;27789;50.840;4.386;2023-09-19T02:29:41;15.90;99.90
39677;DHT22;27789;50.840;4.386;2023-09-19T02:32:06;15.90;99.90
39677;DHT22;27789;50.840;4.386;2023-09-19T02:34:32;15.90;99.90
39677;DHT22;27789;50.840;4.386;2023-09-19T02:36:57;15.90;99.90
39677;DHT22;27789;50.840;4.386;2023-09-19T02:39:23;15.90;99.90
39677;DHT22;27789;50.840;4.386;2023-09-19T02:41:49;15.90;99.90
39677;DHT22;27789;50.840;4.386;2023-09-19T02:44:14;15.90;99.90
39677;DHT22;27789;50.840;4.386;2023-09-19T02:46:40;15.90;99.90
39677;DHT22;27789;50.840;4.386;2023-09-19T02:49:05;15.90;99.90
39677;DHT22;27789;50.840;4.386;2023-09-19T02:51:32;15.90;99.90
39677;DHT22;27789;50.840;4.386;2023-09-19T02:54:00;16.00;99.90
39677;DHT22;27789;50.840;4.386;2023-09-19T02:56:28;16.00;99.90
39677;DHT22;27789;50.840;4.386;2023-09-19T02:58:55;16.00;99.90
39677;DHT22;27789;50.840;4.386;2023-09-19T03:01:20;16.00;99.90
39677;DHT22;27789;50.840;4.386;2023-09-19T03:03:46;15.90;99.90
39677;DHT22;27789;50.840;4.386;2023-09-19T03:06:12;16.00;99.90
39677;DHT22;27789;50.840;4.386;2023-09-19T03:08:38;15.90;99.90
39677;DHT22;27789;50.840;4.386;2023-09-19T03:11:07;15.90;99.90
39677;DHT22;27789;50.840;4.386;2023-09-19T03:13:36;16.00;99.90
39677;DHT22;27789;50.840;4.386;2023-09-19T03:16:05;16.00;99.90
39677;DHT22;27789;50.840;4.386;2023-09-19T03:18:34;16.00;99.90
39677;DHT22;27789;50.840;4.386;2023-09-19T03:21:00;16.00;99.90
39677;DHT22;27789;50.840;4.386;2023-09-19T03:23:26;15.90;99.90
39677;DHT22;27789;50.840;4.386;2023-09-19T03:25:51;15.90;99.90
39677;DHT22;27789;50.840;4.386;2023-09-19T03:28:17;15.90;99.90
39677;DHT22;27789;50.840;4.386;2023-09-19T03:30:43;15.90;99.90
39677;DHT22;27789;50.840;4.386;2023-09-19T03:33:09;15.80;99.90
39677;DHT22;27789;50.840;4.386;2023-09-19T03:35:37;15.80;99.90
39677;DHT22;27789;50.840;4.386;2023-09-19T03:38:03;15.70;99.90
39677;DHT22;27789;50.840;4.386;2023-09-19T03:40:29;15.60;99.90
39677;DHT22;27789;50.840;4.386;2023-09-19T03:42:55;15.50;99.90
39677;DHT22;27789;50.840;4.386;2023-09-19T03:45:20;15.40;99.90
39677;DHT22;27789;50.840;4.386;2023-09-19T03:47:46;15.40;99.90
39677;DHT22;27789;50.840;4.386;2023-09-19T03:50:15;15.30;99.90
39677;DHT22;27789;50.840;4.386;2023-09-19T03:52:45;15.30;99.90
39677;DHT22;27789;50.840;4.386;2023-09-19T03:55:10;15.20;99.90
39677;DHT22;27789;50.840;4.386;2023-09-19T03:57:36;15.10;99.90
39677;DHT22;27789;50.840;4.386;2023-09-19T04:00:02;15.10;99.90
39677;DHT22;27789;50.840;4.386;2023-09-19T04:02:30;15.10;99.90
39677;DHT22;27789;50.840;4.386;2023-09-19T04:04:58;15.10;99.90
39677;DHT22;27789;50.840;4.386;2023-09-19T04:07:24;15.10;99.90
39677;DHT22;27789;50.840;4.386;2023-09-19T04:09:51;15.10;99.90
39677;DHT22;27789;50.840;4.386;2023-09-19T04:12:18;15.10;99.90
39677;DHT22;27789;50.840;4.386;2023-09-19T04:14:44;15.20;99.90
39677;DHT22;27789;50.840;4.386;2023-09-19T04:17:10;15.20;99.90
39677;DHT22;27789;50.840;4.386;2023-09-19T04:19:36;15.20;99.90
39677;DHT22;27789;50.840;4.386;2023-09-19T04:22:02;15.20;99.90
39677;DHT22;27789;50.840;4.386;2023-09-19T04:24:28;15.30;99.90
39677;DHT22;27789;50.840;4.386;2023-09-19T04:26:53;15.30;99.90
39677;DHT22;27789;50.840;4.386;2023-09-19T04:29:19;15.20;99.90
39677;DHT22;27789;50.840;4.386;2023-09-19T04:31:45;15.30;99.90
39677;DHT22;27789;50.840;4.386;2023-09-19T04:34:11;15.30;99.90
39677;DHT22;27789;50.840;4.386;2023-09-19T04:36:40;15.20;99.90
39677;DHT22;27789;50.840;4.386;2023-09-19T04:39:05;15.20;99.90
39677;DHT22;27789;50.840;4.386;2023-09-19T04:41:32;15.10;99.90
39677;DHT22;27789;50.840;4.386;2023-09-19T04:43:58;15.20;99.90
39677;DHT22;27789;50.840;4.386;2023-09-19T04:46:24;15.10;99.90
39677;DHT22;27789;50.840;4.386;2023-09-19T04:48:49;15.10;99.90
39677;DHT22;27789;50.840;4.386;2023-09-19T04:51:14;15.10;99.90
39677;DHT22;27789;50.840;4.386;2023-09-19T04:53:40;15.10;99.90
39677;DHT22;27789;50.840;4.386;2023-09-19T04:56:06;15.10;99.90
39677;DHT22;27789;50.840;4.386;2023-09-19T04:58:33;15.10;99.90
39677;DHT22;27789;50.840;4.386;2023-09-19T05:00:59;15.00;99.90
39677;DHT22;27789;50.840;4.386;2023-09-19T05:03:24;15.00;99.90
39677;DHT22;27789;50.840;4.386;2023-09-19T05:05:50;15.00;99.90
39677;DHT22;27789;50.840;4.386;2023-09-19T05:08:15;15.00;99.90
39677;DHT22;27789;50.840;4.386;2023-09-19T05:10:41;15.00;99.90
39677;DHT22;27789;50.840;4.386;2023-09-19T05:13:06;15.10;99.90
39677;DHT22;27789;50.840;4.386;2023-09-19T05:15:35;15.10;99.90
39677;DHT22;27789;50.840;4.386;2023-09-19T05:18:01;15.10;99.90
39677;DHT22;27789;50.840;4.386;2023-09-19T05:20:26;15.10;99.90
39677;DHT22;27789;50.840;4.386;2023-09-19T05:23:00;15.00;99.90
39677;DHT22;27789;50.840;4.386;2023-09-19T05:25:27;14.90;99.90
39677;DHT22;27789;50.840;4.386;2023-09-19T05:27:57;15.00;99.90
39677;DHT22;27789;50.840;4.386;2023-09-19T05:30:25;15.00;99.90
39677;DHT22;27789;50.840;4.386;2023-09-19T05:32:53;15.00;99.90
39677;DHT22;27789;50.840;4.386;2023-09-19T05:35:18;15.00;99.90
39677;DHT22;27789;50.840;4.386;2023-09-19T05:37:43;15.00;99.90
39677;DHT22;27789;50.840;4.386;2023-09-19T05:40:09;15.00;99.90
39677;DHT22;27789;50.840;4.386;2023-09-19T05:42:35;15.00;99.90
39677;DHT22;27789;50.840;4.386;2023-09-19T05:45:00;15.10;99.90
39677;DHT22;27789;50.840;4.386;2023-09-19T05:47:25;15.10;99.90
39677;DHT22;27789;50.840;4.386;2023-09-19T05:49:51;15.10;99.90
39677;DHT22;27789;50.840;4.386;2023-09-19T05:52:17;15.10;99.90
39677;DHT22;27789;50.840;4.386;2023-09-19T05:54:43;15.10;99.90
39677;DHT22;27789;50.840;4.386;2023-09-19T05:57:08;15.10;99.90
39677;DHT22;27789;50.840;4.386;2023-09-19T05:59:36;15.10;99.90
39677;DHT22;27789;50.840;4.386;2023-09-19T06:02:01;15.10;99.90
39677;DHT22;27789;50.840;4.386;2023-09-19T06:04:27;15.10;99.90
39677;DHT22;27789;50.840;4.386;2023-09-19T06:06:52;15.10;99.90
39677;DHT22;27789;50.840;4.386;2023-09-19T06:09:17;15.30;99.90
39677;DHT22;27789;50.840;4.386;2023-09-19T06:11:44;15.10;99.90
39677;DHT22;27789;50.840;4.386;2023-09-19T06:14:09;15.10;99.90
39677;DHT22;27789;50.840;4.386;2023-09-19T06:16:35;15.10;99.90
39677;DHT22;27789;50.840;4.386;2023-09-19T06:19:01;15.10;99.90
39677;DHT22;27789;50.840;4.386;2023-09-19T06:21:27;15.10;99.90
39677;DHT22;27789;50.840;4.386;2023-09-19T06:23:55;15.10;99.90
39677;DHT22;27789;50.840;4.386;2023-09-19T06:26:23;15.10;99.90
39677;DHT22;27789;50.840;4.386;2023-09-19T06:28:48;15.10;99.90
39677;DHT22;27789;50.840;4.386;2023-09-19T06:31:14;15.10;99.90
39677;DHT22;27789;50.840;4.386;2023-09-19T06:33:39;15.10;99.90
39677;DHT22;27789;50.840;4.386;2023-09-19T06:36:05;15.30;99.90
39677;DHT22;27789;50.840;4.386;2023-09-19T06:38:31;15.30;99.90
39677;DHT22;27789;50.840;4.386;2023-09-19T06:40:59;15.40;99.90
39677;DHT22;27789;50.840;4.386;2023-09-19T06:43:25;15.40;99.90
39677;DHT22;27789;50.840;4.386;2023-09-19T06:45:51;15.40;99.90
39677;DHT22;27789;50.840;4.386;2023-09-19T06:48:17;15.40;99.90
39677;DHT22;27789;50.840;4.386;2023-09-19T06:50:43;15.50;99.90
39677;DHT22;27789;50.840;4.386;2023-09-19T06:53:09;15.50;99.90
39677;DHT22;27789;50.840;4.386;2023-09-19T06:55:35;15.60;99.90
39677;DHT22;27789;50.840;4.386;2023-09-19T06:58:02;15.60;99.90
39677;DHT22;27789;50.840;4.386;2023-09-19T07:00:27;15.60;99.90
39677;DHT22;27789;50.840;4.386;2023-09-19T07:05:22;15.70;99.90
39677;DHT22;27789;50.840;4.386;2023-09-19T07:07:48;15.70;99.90
39677;DHT22;27789;50.840;4.386;2023-09-19T07:10:13;15.70;99.90
39677;DHT22;27789;50.840;4.386;2023-09-19T07:12:39;15.70;99.90
39677;DHT22;27789;50.840;4.386;2023-09-19T07:15:06;15.70;99.90
39677;DHT22;27789;50.840;4.386;2023-09-19T07:17:32;15.60;99.90
39677;DHT22;27789;50.840;4.386;2023-09-19T07:19:58;15.60;99.90
39677;DHT22;27789;50.840;4.386;2023-09-19T07:22:24;15.60;99.90
39677;DHT22;27789;50.840;4.386;2023-09-19T07:24:49;15.70;99.90
39677;DHT22;27789;50.840;4.386;2023-09-19T07:27:15;15.70;99.90
39677;DHT22;27789;50.840;4.386;2023-09-19T07:29:41;15.80;99.90
39677;DHT22;27789;50.840;4.386;2023-09-19T07:32:07;15.80;99.90
39677;DHT22;27789;50.840;4.386;2023-09-19T07:34:33;15.80;99.90
39677;DHT22;27789;50.840;4.386;2023-09-19T07:36:59;15.70;99.90
39677;DHT22;27789;50.840;4.386;2023-09-19T07:39:24;15.80;99.90
39677;DHT22;27789;50.840;4.386;2023-09-19T07:41:50;15.90;99.90
39677;DHT22;27789;50.840;4.386;2023-09-19T07:44:15;16.00;99.90
39677;DHT22;27789;50.840;4.386;2023-09-19T07:46:42;16.10;99.90
39677;DHT22;27789;50.840;4.386;2023-09-19T07:49:09;16.30;99.90
39677;DHT22;27789;50.840;4.386;2023-09-19T07:51:35;16.30;99.90
39677;DHT22;27789;50.840;4.386;2023-09-19T07:54:01;16.30;99.90
39677;DHT22;27789;50.840;4.386;2023-09-19T07:56:26;16.30;99.90
39677;DHT22;27789;50.840;4.386;2023-09-19T07:58:53;16.30;99.90
39677;DHT22;27789;50.840;4.386;2023-09-19T08:01:18;16.30;99.90
39677;DHT22;27789;50.840;4.386;2023-09-19T08:03:44;16.30;99.90
39677;DHT22;27789;50.840;4.386;2023-09-19T08:06:10;16.30;99.90
39677;DHT22;27789;50.840;4.386;2023-09-19T08:08:36;16.30;99.90
39677;DHT22;27789;50.840;4.386;2023-09-19T08:11:05;16.30;99.90
39677;DHT22;27789;50.840;4.386;2023-09-19T08:13:38;16.30;99.90
39677;DHT22;27789;50.840;4.386;2023-09-19T08:16:08;16.30;99.90
39677;DHT22;27789;50.840;4.386;2023-09-19T08:18:34;16.40;99.90
39677;DHT22;27789;50.840;4.386;2023-09-19T08:20:59;16.50;99.90
39677;DHT22;27789;50.840;4.386;2023-09-19T08:23:26;16.50;99.90
39677;DHT22;27789;50.840;4.386;2023-09-19T08:25:56;16.60;99.90
39677;DHT22;27789;50.840;4.386;2023-09-19T08:28:21;16.70;99.90
39677;DHT22;27789;50.840;4.386;2023-09-19T08:30:50;16.80;99.90
39677;DHT22;27789;50.840;4.386;2023-09-19T08:33:16;16.80;99.90
39677;DHT22;27789;50.840;4.386;2023-09-19T08:35:42;16.80;99.90
39677;DHT22;27789;50.840;4.386;2023-09-19T08:38:07;16.80;99.90
39677;DHT22;27789;50.840;4.386;2023-09-19T08:40:36;16.80;99.90
39677;DHT22;27789;50.840;4.386;2023-09-19T08:43:04;17.00;99.90
39677;DHT22;27789;50.840;4.386;2023-09-19T08:45:31;17.10;99.90
39677;DHT22;27789;50.840;4.386;2023-09-19T08:53:16;17.30;99.90
39677;DHT22;27789;50.840;4.386;2023-09-19T08:55:45;17.50;99.90
39677;DHT22;27789;50.840;4.386;2023-09-19T08:58:13;17.60;99.90
39677;DHT22;27789;50.840;4.386;2023-09-19T09:00:41;17.50;99.90
39677;DHT22;27789;50.840;4.386;2023-09-19T09:03:10;17.60;99.90
39677;DHT22;27789;50.840;4.386;2023-09-19T09:05:37;17.70;99.90
39677;DHT22;27789;50.840;4.386;2023-09-19T09:08:05;17.90;99.90
39677;DHT22;27789;50.840;4.386;2023-09-19T09:10:32;17.90;99.90
39677;DHT22;27789;50.840;4.386;2023-09-19T09:12:58;17.80;99.90
39677;DHT22;27789;50.840;4.386;2023-09-19T09:15:24;17.90;99.90
39677;DHT22;27789;50.840;4.386;2023-09-19T09:17:50;18.10;99.90
39677;DHT22;27789;50.840;4.386;2023-09-19T09:20:16;18.20;99.90
39677;DHT22;27789;50.840;4.386;2023-09-19T09:22:53;18.30;99.90
39677;DHT22;27789;50.840;4.386;2023-09-19T09:25:19;18.20;99.90
39677;DHT22;27789;50.840;4.386;2023-09-19T09:27:59;18.30;99.90
39677;DHT22;27789;50.840;4.386;2023-09-19T09:30:33;18.30;99.90
39677;DHT22;27789;50.840;4.386;2023-09-19T09:33:11;18.20;99.90
39677;DHT22;27789;50.840;4.386;2023-09-19T09:35:58;18.20;99.90
39677;DHT22;27789;50.840;4.386;2023-09-19T09:38:24;18.20;99.90
39677;DHT22;27789;50.840;4.386;2023-09-19T09:40:57;18.20;99.90
39677;DHT22;27789;50.840;4.386;2023-09-19T09:46:18;18.40;99.90
39677;DHT22;27789;50.840;4.386;2023-09-19T09:48:56;18.30;99.90
39677;DHT22;27789;50.840;4.386;2023-09-19T09:54:16;18.50;99.90
39677;DHT22;27789;50.840;4.386;2023-09-19T09:56:57;18.50;99.90
39677;DHT22;27789;50.840;4.386;2023-09-19T10:02:14;18.40;99.90
39677;DHT22;27789;50.840;4.386;2023-09-19T10:04:45;18.40;99.90
39677;DHT22;27789;50.840;4.386;2023-09-19T10:07:30;18.50;99.90
39677;DHT22;27789;50.840;4.386;2023-09-19T10:10:01;18.60;99.90
39677;DHT22;27789;50.840;4.386;2023-09-19T10:12:36;18.70;99.90
39677;DHT22;27789;50.840;4.386;2023-09-19T10:15:03;18.70;99.90
39677;DHT22;27789;50.840;4.386;2023-09-19T10:17:32;18.80;99.90
39677;DHT22;27789;50.840;4.386;2023-09-19T10:20:00;19.10;99.90
39677;DHT22;27789;50.840;4.386;2023-09-19T10:22:34;19.40;99.90
39677;DHT22;27789;50.840;4.386;2023-09-19T10:25:00;20.00;99.90
39677;DHT22;27789;50.840;4.386;2023-09-19T10:27:28;20.70;99.90
39677;DHT22;27789;50.840;4.386;2023-09-19T10:29:55;20.70;99.90
39677;DHT22;27789;50.840;4.386;2023-09-19T10:32:22;21.00;99.90
39677;DHT22;27789;50.840;4.386;2023-09-19T10:34:49;21.10;99.90
39677;DHT22;27789;50.840;4.386;2023-09-19T10:37:18;21.60;99.90
39677;DHT22;27789;50.840;4.386;2023-09-19T10:39:45;22.20;99.90
39677;DHT22;27789;50.840;4.386;2023-09-19T10:42:12;22.70;99.90
39677;DHT22;27789;50.840;4.386;2023-09-19T10:44:42;23.60;99.90
39677;DHT22;27789;50.840;4.386;2023-09-19T10:47:10;23.30;99.90
39677;DHT22;27789;50.840;4.386;2023-09-19T10:49:42;23.50;99.90
39677;DHT22;27789;50.840;4.386;2023-09-19T10:52:08;23.50;99.90
39677;DHT22;27789;50.840;4.386;2023-09-19T10:54:38;24.00;99.90
39677;DHT22;27789;50.840;4.386;2023-09-19T10:57:04;23.70;99.90
39677;DHT22;27789;50.840;4.386;2023-09-19T10:59:30;23.70;99.90
39677;DHT22;27789;50.840;4.386;2023-09-19T11:02:00;23.50;99.90
39677;DHT22;27789;50.840;4.386;2023-09-19T11:04:40;24.30;99.90
39677;DHT22;27789;50.840;4.386;2023-09-19T11:07:10;25.10;99.90
39677;DHT22;27789;50.840;4.386;2023-09-19T11:12:11;25.30;99.90
39677;DHT22;27789;50.840;4.386;2023-09-19T11:14:37;26.30;99.90
39677;DHT22;27789;50.840;4.386;2023-09-19T11:22:23;24.60;99.80
39677;DHT22;27789;50.840;4.386;2023-09-19T11:24:49;24.10;99.90
39677;DHT22;27789;50.840;4.386;2023-09-19T11:27:16;24.10;99.90
39677;DHT22;27789;50.840;4.386;2023-09-19T11:29:43;23.70;99.90
39677;DHT22;27789;50.840;4.386;2023-09-19T11:32:09;23.90;99.90
39677;DHT22;27789;50.840;4.386;2023-09-19T11:39:37;23.40;99.90
39677;DHT22;27789;50.840;4.386;2023-09-19T11:42:40;23.20;99.90
39677;DHT22;27789;50.840;4.386;2023-09-19T11:44:49;22.80;99.90
39677;DHT22;27789;50.840;4.386;2023-09-19T11:47:17;21.80;99.90
39677;DHT22;27789;50.840;4.386;2023-09-19T11:49:44;21.90;99.90
39677;DHT22;27789;50.840;4.386;2023-09-19T11:52:10;22.30;99.90
39677;DHT22;27789;50.840;4.386;2023-09-19T11:54:37;21.90;99.90
39677;DHT22;27789;50.840;4.386;2023-09-19T11:57:05;21.70;99.90
39677;DHT22;27789;50.840;4.386;2023-09-19T11:59:31;21.70;99.90
39677;DHT22;27789;50.840;4.386;2023-09-19T12:01:57;21.60;99.90
39677;DHT22;27789;50.840;4.386;2023-09-19T12:04:44;21.50;99.90
39677;DHT22;27789;50.840;4.386;2023-09-19T12:07:12;21.20;99.90
39677;DHT22;27789;50.840;4.386;2023-09-19T12:09:41;21.00;99.90
39677;DHT22;27789;50.840;4.386;2023-09-19T12:12:18;21.10;99.90
39677;DHT22;27789;50.840;4.386;2023-09-19T12:14:47;21.00;99.90
39677;DHT22;27789;50.840;4.386;2023-09-19T12:17:13;21.00;99.90
39677;DHT22;27789;50.840;4.386;2023-09-19T12:19:40;20.70;99.90
39677;DHT22;27789;50.840;4.386;2023-09-19T12:22:08;21.00;99.90
39677;DHT22;27789;50.840;4.386;2023-09-19T12:24:34;20.80;99.90
39677;DHT22;27789;50.840;4.386;2023-09-19T12:27:04;20.80;99.90
39677;DHT22;27789;50.840;4.386;2023-09-19T12:29:31;21.10;99.90
39677;DHT22;27789;50.840;4.386;2023-09-19T12:31:57;21.30;99.90
39677;DHT22;27789;50.840;4.386;2023-09-19T12:34:27;21.40;99.90
39677;DHT22;27789;50.840;4.386;2023-09-19T12:37:12;21.10;99.90
39677;DHT22;27789;50.840;4.386;2023-09-19T12:39:39;21.00;99.90
39677;DHT22;27789;50.840;4.386;2023-09-19T12:42:10;20.90;99.90
39677;DHT22;27789;50.840;4.386;2023-09-19T12:44:39;20.50;99.90
39677;DHT22;27789;50.840;4.386;2023-09-19T12:47:14;20.70;99.90
39677;DHT22;27789;50.840;4.386;2023-09-19T12:52:31;21.90;99.90
39677;DHT22;27789;50.840;4.386;2023-09-19T12:54:59;21.70;99.90
39677;DHT22;27789;50.840;4.386;2023-09-19T12:57:28;21.70;99.90
39677;DHT22;27789;50.840;4.386;2023-09-19T12:59:57;22.00;99.90
39677;DHT22;27789;50.840;4.386;2023-09-19T13:02:23;21.70;99.90
39677;DHT22;27789;50.840;4.386;2023-09-19T13:04:52;21.60;99.90
39677;DHT22;27789;50.840;4.386;2023-09-19T13:10:04;20.90;99.90
39677;DHT22;27789;50.840;4.386;2023-09-19T13:12:37;20.80;99.90
39677;DHT22;27789;50.840;4.386;2023-09-19T13:15:10;20.80;99.90
39677;DHT22;27789;50.840;4.386;2023-09-19T13:20:04;20.50;99.90
39677;DHT22;27789;50.840;4.386;2023-09-19T13:25:05;21.20;99.90
39677;DHT22;27789;50.840;4.386;2023-09-19T13:27:32;21.10;99.90
39677;DHT22;27789;50.840;4.386;2023-09-19T13:29:58;21.00;99.90
39677;DHT22;27789;50.840;4.386;2023-09-19T13:32:23;20.90;99.90
39677;DHT22;27789;50.840;4.386;2023-09-19T13:34:49;20.90;99.90
39677;DHT22;27789;50.840;4.386;2023-09-19T13:37:14;20.80;99.90
39677;DHT22;27789;50.840;4.386;2023-09-19T13:39:41;20.70;99.90
39677;DHT22;27789;50.840;4.386;2023-09-19T13:42:13;20.70;99.90
39677;DHT22;27789;50.840;4.386;2023-09-19T13:44:38;20.70;99.90
39677;DHT22;27789;50.840;4.386;2023-09-19T13:47:04;20.80;99.90
39677;DHT22;27789;50.840;4.386;2023-09-19T13:49:35;20.90;99.90
39677;DHT22;27789;50.840;4.386;2023-09-19T13:52:00;20.90;99.90
39677;DHT22;27789;50.840;4.386;2023-09-19T13:54:28;20.90;99.90
39677;DHT22;27789;50.840;4.386;2023-09-19T13:56:54;20.90;99.90
39677;DHT22;27789;50.840;4.386;2023-09-19T13:59:19;20.90;99.90
39677;DHT22;27789;50.840;4.386;2023-09-19T14:01:49;20.60;99.90
39677;DHT22;27789;50.840;4.386;2023-09-19T14:04:15;20.40;99.90
39677;DHT22;27789;50.840;4.386;2023-09-19T14:06:43;20.30;99.90
39677;DHT22;27789;50.840;4.386;2023-09-19T14:09:09;20.40;99.90
39677;DHT22;27789;50.840;4.386;2023-09-19T14:11:37;20.40;99.90
39677;DHT22;27789;50.840;4.386;2023-09-19T14:14:02;20.50;99.90
39677;DHT22;27789;50.840;4.386;2023-09-19T14:16:30;20.50;99.90
39677;DHT22;27789;50.840;4.386;2023-09-19T14:18:56;20.30;99.90
39677;DHT22;27789;50.840;4.386;2023-09-19T14:21:22;20.20;99.90
39677;DHT22;27789;50.840;4.386;2023-09-19T14:23:48;20.20;99.90
39677;DHT22;27789;50.840;4.386;2023-09-19T14:26:14;20.20;99.90
39677;DHT22;27789;50.840;4.386;2023-09-19T14:28:41;20.20;99.90
39677;DHT22;27789;50.840;4.386;2023-09-19T14:31:07;20.30;99.90
39677;DHT22;27789;50.840;4.386;2023-09-19T14:33:33;20.30;99.90
39677;DHT22;27789;50.840;4.386;2023-09-19T14:36:01;20.50;99.90
39677;DHT22;27789;50.840;4.386;2023-09-19T14:38:27;20.40;99.90
39677;DHT22;27789;50.840;4.386;2023-09-19T14:41:03;20.50;99.90
39677;DHT22;27789;50.840;4.386;2023-09-19T14:43:29;20.60;99.90
39677;DHT22;27789;50.840;4.386;2023-09-19T14:46:05;20.70;99.90
39677;DHT22;27789;50.840;4.386;2023-09-19T14:48:33;20.60;99.90
39677;DHT22;27789;50.840;4.386;2023-09-19T14:51:02;20.50;99.90
39677;DHT22;27789;50.840;4.386;2023-09-19T14:53:28;20.50;99.90
39677;DHT22;27789;50.840;4.386;2023-09-19T14:55:53;20.30;99.90
39677;DHT22;27789;50.840;4.386;2023-09-19T14:58:20;20.20;99.90
39677;DHT22;27789;50.840;4.386;2023-09-19T15:00:46;20.30;99.90
39677;DHT22;27789;50.840;4.386;2023-09-19T15:03:12;20.20;99.90
39677;DHT22;27789;50.840;4.386;2023-09-19T15:05:39;20.20;99.90
39677;DHT22;27789;50.840;4.386;2023-09-19T15:08:04;20.20;99.90
39677;DHT22;27789;50.840;4.386;2023-09-19T15:10:31;20.40;99.90
39677;DHT22;27789;50.840;4.386;2023-09-19T15:12:56;20.30;99.90
39677;DHT22;27789;50.840;4.386;2023-09-19T15:15:22;20.30;99.90
39677;DHT22;27789;50.840;4.386;2023-09-19T15:20:17;20.00;99.90
39677;DHT22;27789;50.840;4.386;2023-09-19T15:22:43;20.00;99.90
39677;DHT22;27789;50.840;4.386;2023-09-19T15:25:09;20.00;99.90
39677;DHT22;27789;50.840;4.386;2023-09-19T15:27:35;19.90;99.90
39677;DHT22;27789;50.840;4.386;2023-09-19T15:30:02;19.80;99.90
39677;DHT22;27789;50.840;4.386;2023-09-19T15:32:28;19.80;99.90
39677;DHT22;27789;50.840;4.386;2023-09-19T15:34:53;19.80;99.90
39677;DHT22;27789;50.840;4.386;2023-09-19T15:37:19;19.80;99.90
39677;DHT22;27789;50.840;4.386;2023-09-19T15:39:45;19.70;99.90
39677;DHT22;27789;50.840;4.386;2023-09-19T15:42:11;19.70;99.90
39677;DHT22;27789;50.840;4.386;2023-09-19T15:44:36;19.60;99.90
39677;DHT22;27789;50.840;4.386;2023-09-19T15:47:03;19.70;99.90
39677;DHT22;27789;50.840;4.386;2023-09-19T15:49:28;19.70;99.90
39677;DHT22;27789;50.840;4.386;2023-09-19T15:51:54;19.70;99.90
39677;DHT22;27789;50.840;4.386;2023-09-19T15:54:20;19.70;99.90
39677;DHT22;27789;50.840;4.386;2023-09-19T15:56:45;19.60;99.90
39677;DHT22;27789;50.840;4.386;2023-09-19T15:59:15;19.60;99.90
39677;DHT22;27789;50.840;4.386;2023-09-19T16:01:41;19.60;99.90
39677;DHT22;27789;50.840;4.386;2023-09-19T16:04:08;19.60;99.90
39677;DHT22;27789;50.840;4.386;2023-09-19T16:06:34;19.60;99.90
39677;DHT22;27789;50.840;4.386;2023-09-19T16:09:00;19.50;99.90
39677;DHT22;27789;50.840;4.386;2023-09-19T16:11:29;19.50;99.90
39677;DHT22;27789;50.840;4.386;2023-09-19T16:13:55;19.50;99.90
39677;DHT22;27789;50.840;4.386;2023-09-19T16:16:21;19.50;99.90
39677;DHT22;27789;50.840;4.386;2023-09-19T16:18:51;19.40;99.90
39677;DHT22;27789;50.840;4.386;2023-09-19T16:21:17;19.40;99.90
39677;DHT22;27789;50.840;4.386;2023-09-19T16:23:48;19.40;99.90
39677;DHT22;27789;50.840;4.386;2023-09-19T16:26:15;19.40;99.90
39677;DHT22;27789;50.840;4.386;2023-09-19T16:28:41;19.40;99.90
39677;DHT22;27789;50.840;4.386;2023-09-19T16:31:07;19.40;99.90